createdAt,value
2017-11-07T00:00:13.947Z,5.90
2017-11-07T00:02:41.425Z,5.90
2017-11-07T00:05:09.706Z,5.90
2017-11-07T00:07:37.360Z,5.90
2017-11-07T00:10:05.629Z,5.80
2017-11-07T00:12:33.873Z,5.90
2017-11-07T00:15:01.374Z,5.90
2017-11-07T00:17:28.870Z,5.80
2017-11-07T00:19:56.405Z,5.80
2017-11-07T00:22:34.883Z,5.70
2017-11-07T00:25:02.405Z,5.80
2017-11-07T00:27:29.886Z,5.90
2017-11-07T00:29:57.362Z,5.90
2017-11-07T00:32:24.868Z,5.90
2017-11-07T00:34:52.387Z,5.70
2017-11-07T00:37:20.660Z,5.80
2017-11-07T00:39:48.909Z,5.70
2017-11-07T00:42:16.419Z,5.70
2017-11-07T00:44:43.900Z,5.80
2017-11-07T00:47:11.395Z,5.80
2017-11-07T00:49:38.873Z,5.80
2017-11-07T00:52:07.150Z,5.70
2017-11-07T00:54:35.404Z,5.70
2017-11-07T00:57:02.910Z,5.70
2017-11-07T00:59:30.408Z,5.60
2017-11-07T01:01:57.909Z,5.70
2017-11-07T01:04:26.147Z,5.70
2017-11-07T01:06:54.408Z,5.70
2017-11-07T01:09:21.911Z,5.70
2017-11-07T01:11:50.208Z,5.60
2017-11-07T01:14:17.689Z,5.60
2017-11-07T01:16:45.195Z,5.60
2017-11-07T01:19:12.676Z,5.60
2017-11-07T01:21:40.177Z,5.70
2017-11-07T01:24:07.657Z,5.70
2017-11-07T01:26:35.149Z,5.60
2017-11-07T01:29:02.638Z,5.70
2017-11-07T01:31:30.148Z,5.80
2017-11-07T01:33:58.399Z,5.60
2017-11-07T01:36:25.897Z,5.60
2017-11-07T01:38:53.392Z,5.60
2017-11-07T01:41:20.874Z,5.60
2017-11-07T01:43:48.362Z,5.70
2017-11-07T01:46:16.611Z,5.70
2017-11-07T01:48:44.104Z,5.70
2017-11-07T01:51:11.573Z,5.70
2017-11-07T01:53:39.107Z,5.70
2017-11-07T01:56:07.353Z,5.50
2017-11-07T01:58:34.865Z,5.60
2017-11-07T02:01:02.344Z,5.50
2017-11-07T02:03:29.823Z,5.60
2017-11-07T02:05:57.309Z,5.70
2017-11-07T02:08:32.324Z,5.60
2017-11-07T02:10:59.811Z,5.60
2017-11-07T02:13:28.119Z,5.70
2017-11-07T02:15:55.595Z,5.70
2017-11-07T02:18:23.089Z,5.70
2017-11-07T02:20:51.360Z,5.70
2017-11-07T02:23:18.858Z,5.70
2017-11-07T02:25:46.405Z,5.60
2017-11-07T02:28:13.905Z,5.60
2017-11-07T02:30:41.403Z,5.60
2017-11-07T02:33:08.880Z,5.60
2017-11-07T02:35:36.420Z,5.70
2017-11-07T02:38:04.875Z,5.70
2017-11-07T02:40:32.392Z,5.70
2017-11-07T02:42:59.883Z,5.70
2017-11-07T02:45:27.374Z,5.60
2017-11-07T02:47:55.631Z,5.70
2017-11-07T02:50:23.130Z,5.70
2017-11-07T02:52:50.600Z,5.70
2017-11-07T02:55:18.116Z,5.70
2017-11-07T02:57:47.100Z,5.70
2017-11-07T03:00:14.584Z,5.70
2017-11-07T03:02:42.832Z,5.80
2017-11-07T03:05:10.517Z,5.70
2017-11-07T03:07:38.782Z,5.70
2017-11-07T03:10:06.272Z,5.70
2017-11-07T03:12:33.764Z,5.70
2017-11-07T03:15:01.266Z,5.60
2017-11-07T03:17:29.520Z,5.70
2017-11-07T03:19:57.025Z,5.70
2017-11-07T03:22:24.517Z,5.70
2017-11-07T03:24:52.002Z,5.70
2017-11-07T03:27:19.489Z,5.70
2017-11-07T03:29:47.746Z,5.70
2017-11-07T03:32:15.227Z,5.70
2017-11-07T03:34:42.728Z,5.70
2017-11-07T03:37:10.216Z,5.70
2017-11-07T03:39:37.703Z,5.60
2017-11-07T03:42:05.188Z,5.50
2017-11-07T03:44:32.681Z,5.50
2017-11-07T03:47:00.182Z,5.60
2017-11-07T03:49:27.660Z,5.60
2017-11-07T03:51:55.162Z,5.60
2017-11-07T03:54:22.659Z,5.60
2017-11-07T03:56:50.209Z,5.60
2017-11-07T03:59:17.688Z,5.40
2017-11-07T04:01:45.191Z,5.40
2017-11-07T04:04:12.672Z,5.50
2017-11-07T04:06:40.932Z,5.50
2017-11-07T04:09:08.427Z,5.50
2017-11-07T04:11:35.936Z,5.50
2017-11-07T04:14:07.052Z,5.40
2017-11-07T04:16:34.549Z,5.30
2017-11-07T04:19:02.162Z,5.40
2017-11-07T04:21:29.681Z,5.30
2017-11-07T04:23:57.953Z,5.40
2017-11-07T04:26:26.208Z,5.40
2017-11-07T04:28:53.699Z,5.40
2017-11-07T04:31:21.965Z,5.30
2017-11-07T04:33:50.231Z,5.40
2017-11-07T04:36:17.729Z,5.40
2017-11-07T04:38:45.228Z,5.50
2017-11-07T04:41:12.716Z,5.50
2017-11-07T04:43:40.980Z,5.50
2017-11-07T04:46:08.464Z,5.50
2017-11-07T04:48:35.959Z,5.50
2017-11-07T04:51:03.466Z,5.50
2017-11-07T04:53:31.760Z,5.50
2017-11-07T04:55:59.253Z,5.50
2017-11-07T04:58:26.735Z,5.50
2017-11-07T05:00:54.223Z,5.50
2017-11-07T05:03:22.476Z,5.50
2017-11-07T05:05:49.956Z,5.50
2017-11-07T05:08:18.220Z,5.50
2017-11-07T05:10:46.489Z,5.40
2017-11-07T05:13:13.965Z,5.40
2017-11-07T05:15:42.240Z,5.60
2017-11-07T05:18:10.496Z,5.50
2017-11-07T05:20:39.520Z,5.40
2017-11-07T05:23:07.793Z,5.50
2017-11-07T05:25:36.056Z,5.50
2017-11-07T05:28:04.315Z,5.40
2017-11-07T05:30:32.004Z,5.40
2017-11-07T05:33:00.260Z,5.50
2017-11-07T05:35:27.753Z,5.50
2017-11-07T05:37:55.238Z,5.50
2017-11-07T05:40:22.744Z,5.50
2017-11-07T05:42:51.021Z,5.50
2017-11-07T05:45:19.256Z,5.60
2017-11-07T05:47:46.866Z,5.50
2017-11-07T05:50:15.117Z,5.40
2017-11-07T05:52:42.599Z,5.40
2017-11-07T05:55:10.866Z,5.40
2017-11-07T05:57:39.980Z,5.30
2017-11-07T06:00:07.462Z,5.30
2017-11-07T06:02:34.970Z,5.40
2017-11-07T06:05:02.456Z,5.50
2017-11-07T06:07:29.961Z,5.40
2017-11-07T06:09:57.448Z,5.40
2017-11-07T06:12:24.957Z,5.50
2017-11-07T06:14:52.446Z,5.50
2017-11-07T06:17:19.928Z,5.50
2017-11-07T06:19:48.177Z,5.60
2017-11-07T06:22:15.785Z,5.50
2017-11-07T06:24:43.740Z,5.60
2017-11-07T06:27:12.012Z,5.50
2017-11-07T06:29:40.263Z,5.60
2017-11-07T06:32:09.279Z,5.60
2017-11-07T06:34:37.536Z,5.50
2017-11-07T06:37:05.036Z,5.50
2017-11-07T06:39:32.525Z,5.60
2017-11-07T06:42:00.054Z,5.60
2017-11-07T06:44:27.599Z,5.60
2017-11-07T06:46:55.851Z,5.60
2017-11-07T06:49:24.115Z,5.50
2017-11-07T06:51:53.130Z,5.60
2017-11-07T06:54:21.384Z,5.50
2017-11-07T06:56:48.976Z,5.50
2017-11-07T06:59:17.235Z,5.60
2017-11-07T07:01:44.725Z,5.60
2017-11-07T07:04:12.257Z,5.50
2017-11-07T07:06:39.745Z,5.40
2017-11-07T07:09:07.250Z,5.50
2017-11-07T07:11:34.736Z,5.60
2017-11-07T07:14:03.017Z,5.60
2017-11-07T07:16:31.271Z,5.40
2017-11-07T07:18:58.782Z,5.40
2017-11-07T07:21:26.280Z,5.60
2017-11-07T07:23:53.803Z,5.50
2017-11-07T07:26:21.285Z,5.50
2017-11-07T07:28:48.824Z,5.60
2017-11-07T07:31:16.316Z,5.60
2017-11-07T07:33:43.803Z,5.60
2017-11-07T07:36:12.090Z,5.50
2017-11-07T07:38:40.336Z,5.60
2017-11-07T07:41:07.812Z,5.60
2017-11-07T07:43:36.059Z,5.50
2017-11-07T07:46:03.600Z,5.50
2017-11-07T07:48:31.099Z,5.50
2017-11-07T07:50:58.601Z,5.60
2017-11-07T07:53:26.106Z,5.70
2017-11-07T07:55:53.606Z,5.70
2017-11-07T07:58:21.105Z,5.70
2017-11-07T08:00:48.598Z,5.80
2017-11-07T08:03:16.860Z,5.80
2017-11-07T08:05:44.368Z,5.80
2017-11-07T08:08:11.844Z,5.80
2017-11-07T08:10:39.884Z,5.80
2017-11-07T08:13:08.371Z,5.90
2017-11-07T08:15:35.907Z,5.90
2017-11-07T08:18:04.151Z,5.90
2017-11-07T08:20:31.656Z,5.90
2017-11-07T08:22:59.172Z,5.90
2017-11-07T08:25:26.644Z,5.90
2017-11-07T08:27:55.582Z,6.00
2017-11-07T08:30:23.065Z,6.00
2017-11-07T08:32:50.581Z,5.90
2017-11-07T08:35:18.584Z,5.90
2017-11-07T08:37:46.098Z,6.00
2017-11-07T08:40:14.355Z,6.00
2017-11-07T08:42:41.868Z,6.00
2017-11-07T08:45:09.348Z,6.10
2017-11-07T08:47:36.844Z,6.10
2017-11-07T08:50:04.376Z,6.20
2017-11-07T08:52:31.876Z,6.10
2017-11-07T08:54:59.357Z,6.10
2017-11-07T08:57:26.850Z,6.10
2017-11-07T08:59:54.359Z,6.10
2017-11-07T09:02:21.840Z,6.20
2017-11-07T09:04:49.339Z,6.20
2017-11-07T09:07:16.822Z,6.10
2017-11-07T09:09:44.336Z,6.10
2017-11-07T09:12:11.812Z,6.20
2017-11-07T09:14:39.345Z,6.20
2017-11-07T09:17:06.837Z,6.20
2017-11-07T09:19:35.107Z,6.10
2017-11-07T09:22:03.567Z,6.20
2017-11-07T09:24:31.077Z,6.20
2017-11-07T09:26:58.564Z,6.20
2017-11-07T09:29:26.080Z,6.20
2017-11-07T09:31:53.567Z,6.30
2017-11-07T09:34:21.084Z,6.20
2017-11-07T09:36:49.340Z,6.20
2017-11-07T09:39:16.887Z,6.20
2017-11-07T09:41:44.391Z,6.20
2017-11-07T09:44:12.835Z,6.20
2017-11-07T09:46:40.345Z,6.20
2017-11-07T09:49:07.848Z,6.20
2017-11-07T09:51:35.342Z,6.30
2017-11-07T09:54:03.596Z,6.30
2017-11-07T09:59:25.133Z,6.30
2017-11-07T10:01:52.635Z,6.30
2017-11-07T10:04:21.051Z,6.30
2017-11-07T10:06:48.550Z,6.30
2017-11-07T10:09:16.792Z,6.30
2017-11-07T10:11:44.284Z,6.40
2017-11-07T10:14:12.537Z,6.30
2017-11-07T10:16:40.048Z,6.30
2017-11-07T10:19:07.540Z,6.30
2017-11-07T10:21:35.065Z,6.30
2017-11-07T10:24:02.558Z,6.40
2017-11-07T10:26:30.968Z,6.40
2017-11-07T10:28:59.212Z,6.40
2017-11-07T10:31:26.711Z,6.30
2017-11-07T10:33:54.221Z,6.40
2017-11-07T10:36:21.717Z,6.30
2017-11-07T10:38:49.983Z,6.40
2017-11-07T10:41:17.496Z,6.40
2017-11-07T10:43:44.980Z,6.40
2017-11-07T10:46:12.476Z,6.50
2017-11-07T10:48:40.738Z,6.40
2017-11-07T10:51:08.998Z,6.40
2017-11-07T10:53:36.487Z,6.40
2017-11-07T10:56:04.785Z,6.40
2017-11-07T10:58:32.290Z,6.40
2017-11-07T11:00:59.793Z,6.40
2017-11-07T11:03:27.313Z,6.40
2017-11-07T11:05:55.608Z,6.40
2017-11-07T11:08:23.157Z,6.40
2017-11-07T11:10:51.415Z,6.30
2017-11-07T11:13:19.706Z,6.30
2017-11-07T11:15:47.980Z,6.40
2017-11-07T11:18:15.488Z,6.30
2017-11-07T11:20:42.968Z,6.40
2017-11-07T11:23:10.473Z,6.40
2017-11-07T11:25:38.726Z,6.30
2017-11-07T11:28:06.245Z,6.30
2017-11-07T11:30:33.725Z,6.40
2017-11-07T11:33:01.232Z,6.40
2017-11-07T11:35:28.724Z,6.50
2017-11-07T11:37:56.238Z,6.40
2017-11-07T11:40:24.493Z,6.40
2017-11-07T11:42:51.990Z,6.40
2017-11-07T11:45:19.485Z,6.50
2017-11-07T11:47:47.027Z,6.50
2017-11-07T11:50:14.531Z,6.50
2017-11-07T11:52:42.017Z,6.60
2017-11-07T11:55:09.517Z,6.60
2017-11-07T11:57:38.457Z,6.60
2017-11-07T12:00:06.736Z,6.60
2017-11-07T12:02:34.996Z,6.60
2017-11-07T12:05:02.507Z,6.60
2017-11-07T12:07:29.999Z,6.60
2017-11-07T12:09:57.494Z,6.50
2017-11-07T12:12:24.984Z,6.60
2017-11-07T12:14:52.505Z,6.60
2017-11-07T12:17:20.760Z,6.50
2017-11-07T12:19:48.275Z,6.50
2017-11-07T12:22:15.759Z,6.50
2017-11-07T12:24:43.305Z,6.50
2017-11-07T12:27:10.788Z,6.50
2017-11-07T12:29:39.071Z,6.50
2017-11-07T12:32:06.552Z,6.50
2017-11-07T12:34:42.606Z,6.50
2017-11-07T12:37:10.861Z,6.50
2017-11-07T12:39:38.385Z,6.50
2017-11-07T12:42:05.900Z,6.50
2017-11-07T12:44:34.174Z,6.50
2017-11-07T12:47:01.687Z,6.50
2017-11-07T12:49:29.184Z,6.60
2017-11-07T12:52:00.272Z,6.60
2017-11-07T12:54:27.801Z,6.60
2017-11-07T12:56:55.289Z,6.60
2017-11-07T12:59:22.814Z,6.60
2017-11-07T13:01:51.070Z,6.60
2017-11-07T13:04:19.332Z,6.50
2017-11-07T13:06:46.832Z,6.50
2017-11-07T13:09:14.329Z,6.50
2017-11-07T13:11:41.832Z,6.50
2017-11-07T13:14:10.080Z,6.60
2017-11-07T13:16:37.587Z,6.50
2017-11-07T13:19:05.084Z,6.60
2017-11-07T13:21:32.597Z,6.60
2017-11-07T13:24:00.142Z,6.70
2017-11-07T13:26:28.410Z,6.60
2017-11-07T13:28:56.673Z,6.60
2017-11-07T13:31:24.168Z,6.60
2017-11-07T13:33:51.654Z,6.60
2017-11-07T13:36:19.169Z,6.70
2017-11-07T13:38:47.415Z,6.70
2017-11-07T13:41:14.920Z,6.70
2017-11-07T13:43:42.409Z,6.70
2017-11-07T13:46:09.925Z,6.70
2017-11-07T13:48:38.173Z,6.70
2017-11-07T13:51:05.689Z,6.70
2017-11-07T13:53:33.184Z,6.70
2017-11-07T13:56:00.685Z,6.70
2017-11-07T13:58:28.948Z,6.70
2017-11-07T14:00:57.240Z,6.70
2017-11-07T14:03:24.747Z,6.70
2017-11-07T14:05:52.244Z,6.70
2017-11-07T14:08:20.512Z,6.70
2017-11-07T14:10:48.764Z,6.70
2017-11-07T14:13:16.266Z,6.70
2017-11-07T14:15:43.756Z,6.70
2017-11-07T14:18:11.309Z,6.70
2017-11-07T14:20:38.817Z,6.80
2017-11-07T14:23:07.097Z,6.70
2017-11-07T14:25:35.352Z,6.70
2017-11-07T14:28:03.781Z,6.70
2017-11-07T14:30:31.280Z,6.70
2017-11-07T14:32:58.794Z,6.70
2017-11-07T14:35:26.468Z,6.70
2017-11-07T14:37:53.957Z,6.60
2017-11-07T14:40:21.432Z,6.70
2017-11-07T14:42:48.927Z,6.70
2017-11-07T14:45:16.413Z,6.70
2017-11-07T14:47:43.917Z,6.60
2017-11-07T14:50:12.600Z,6.60
2017-11-07T14:52:40.096Z,6.60
2017-11-07T14:55:07.593Z,6.70
2017-11-07T14:57:35.120Z,6.70
2017-11-07T15:00:02.620Z,6.60
2017-11-07T15:02:30.867Z,6.60
2017-11-07T15:04:58.365Z,6.60
2017-11-07T15:07:25.854Z,6.70
2017-11-07T15:09:53.352Z,6.70
2017-11-07T15:12:21.876Z,6.70
2017-11-07T15:14:50.145Z,6.70
2017-11-07T15:17:18.399Z,6.70
2017-11-07T15:19:45.909Z,6.70
2017-11-07T15:22:13.398Z,6.70
2017-11-07T15:24:40.951Z,6.70
2017-11-07T15:27:08.509Z,6.60
2017-11-07T15:29:36.043Z,6.70
2017-11-07T15:32:03.580Z,6.70
2017-11-07T15:34:31.844Z,6.70
2017-11-07T15:36:59.332Z,6.70
2017-11-07T15:39:26.912Z,6.60
2017-11-07T15:41:54.407Z,6.60
2017-11-07T15:44:21.897Z,6.60
2017-11-07T15:46:49.389Z,6.70
2017-11-07T15:49:16.906Z,6.70
2017-11-07T15:51:45.157Z,6.70
2017-11-07T15:54:12.674Z,6.70
2017-11-07T15:56:40.169Z,6.70
2017-11-07T15:59:07.671Z,6.70
2017-11-07T16:01:35.153Z,6.60
2017-11-07T16:04:02.641Z,6.70
2017-11-07T16:06:30.130Z,6.70
2017-11-07T16:08:58.397Z,6.70
2017-11-07T16:11:25.988Z,6.70
2017-11-07T16:13:53.520Z,6.70
2017-11-07T16:16:21.793Z,6.70
2017-11-07T16:18:49.305Z,6.70
2017-11-07T16:21:16.811Z,6.70
2017-11-07T16:23:44.330Z,6.70
2017-11-07T16:26:11.817Z,6.60
2017-11-07T16:28:39.296Z,6.60
2017-11-07T16:31:07.568Z,6.60
2017-11-07T16:33:35.820Z,6.70
2017-11-07T16:36:04.108Z,6.70
2017-11-07T16:38:32.364Z,6.60
2017-11-07T16:40:59.966Z,6.60
2017-11-07T16:43:28.229Z,6.70
2017-11-07T16:45:56.496Z,6.60
2017-11-07T16:48:23.980Z,6.60
2017-11-07T16:50:52.233Z,6.60
2017-11-07T16:53:19.732Z,6.60
2017-11-07T16:55:47.232Z,6.60
2017-11-07T16:58:14.720Z,6.70
2017-11-07T17:00:42.981Z,6.70
2017-11-07T17:03:10.459Z,6.60
2017-11-07T17:05:38.733Z,6.70
2017-11-07T17:08:06.988Z,6.70
2017-11-07T17:10:34.525Z,6.70
2017-11-07T17:13:02.017Z,6.70
2017-11-07T17:15:30.285Z,6.60
2017-11-07T17:17:57.805Z,6.60
2017-11-07T17:20:26.405Z,6.60
2017-11-07T17:22:54.415Z,6.70
2017-11-07T17:25:22.664Z,6.70
2017-11-07T17:27:50.507Z,6.70
2017-11-07T17:30:17.989Z,6.70
2017-11-07T17:32:45.508Z,6.70
2017-11-07T17:35:13.009Z,6.70
2017-11-07T17:37:40.516Z,6.70
2017-11-07T17:40:08.047Z,6.70
2017-11-07T17:42:36.319Z,6.70
2017-11-07T17:45:04.576Z,6.70
2017-11-07T17:47:32.074Z,6.60
2017-11-07T17:49:59.582Z,6.60
2017-11-07T17:52:27.097Z,6.60
2017-11-07T17:54:54.581Z,6.70
2017-11-07T17:57:22.084Z,6.60
2017-11-07T17:59:50.342Z,6.60
2017-11-07T18:02:17.874Z,6.70
2017-11-07T18:04:51.332Z,6.70
2017-11-07T18:07:18.845Z,6.70
2017-11-07T18:09:46.338Z,6.70
2017-11-07T18:12:14.614Z,6.70
2017-11-07T18:14:42.857Z,6.70
2017-11-07T18:17:10.355Z,6.70
2017-11-07T18:19:38.702Z,6.70
2017-11-07T18:22:06.223Z,6.70
2017-11-07T18:24:33.710Z,6.70
2017-11-07T18:27:01.192Z,6.70
2017-11-07T18:29:29.454Z,6.60
2017-11-07T18:31:56.939Z,6.60
2017-11-07T18:34:25.219Z,6.60
2017-11-07T18:36:53.490Z,6.60
2017-11-07T18:39:21.785Z,6.60
2017-11-07T18:41:49.274Z,6.60
2017-11-07T18:44:16.779Z,6.60
2017-11-07T18:46:45.025Z,6.60
2017-11-07T18:49:12.519Z,6.60
2017-11-07T18:51:40.772Z,6.60
2017-11-07T18:54:09.990Z,6.60
2017-11-07T18:56:45.352Z,6.60
2017-11-07T18:59:12.853Z,6.60
2017-11-07T19:01:40.341Z,6.70
2017-11-07T19:04:08.612Z,6.70
2017-11-07T19:06:36.090Z,6.70
2017-11-07T19:09:04.365Z,6.70
2017-11-07T19:11:32.631Z,6.70
2017-11-07T19:14:02.540Z,6.70
2017-11-07T19:16:30.815Z,6.70
2017-11-07T19:18:59.085Z,6.60
2017-11-07T19:21:26.569Z,6.60
2017-11-07T19:23:54.069Z,6.70
2017-11-07T19:26:21.559Z,6.70
2017-11-07T19:28:49.079Z,6.70
2017-11-07T19:31:16.564Z,6.70
2017-11-07T19:33:44.045Z,6.70
2017-11-07T19:36:12.314Z,6.70
2017-11-07T19:38:40.207Z,6.70
2017-11-07T19:41:08.466Z,6.70
2017-11-07T19:43:37.317Z,6.70
2017-11-07T19:46:04.809Z,6.70
2017-11-07T19:48:33.062Z,6.70
2017-11-07T19:51:00.693Z,6.70
2017-11-07T19:53:28.230Z,6.70
2017-11-07T20:01:42.301Z,6.70
2017-11-07T20:04:10.561Z,6.70
2017-11-07T20:06:38.160Z,6.70
2017-11-07T20:09:05.657Z,6.70
2017-11-07T20:11:33.158Z,6.70
2017-11-07T20:14:01.422Z,6.70
2017-11-07T20:16:29.677Z,6.70
2017-11-07T20:18:57.292Z,6.70
2017-11-07T20:21:24.796Z,6.70
2017-11-07T20:23:53.799Z,6.60
2017-11-07T20:26:21.294Z,6.70
2017-11-07T20:28:48.788Z,6.70
2017-11-07T20:31:16.279Z,6.70
2017-11-07T20:33:43.767Z,6.70
2017-11-07T20:36:11.311Z,6.70
2017-11-07T20:38:38.856Z,6.70
2017-11-07T20:41:06.340Z,6.80
2017-11-07T20:43:33.832Z,6.70
2017-11-07T20:46:02.088Z,6.80
2017-11-07T20:48:29.610Z,6.80
2017-11-07T20:50:57.087Z,6.80
2017-11-07T20:53:24.588Z,6.80
2017-11-07T20:55:52.068Z,6.80
2017-11-07T20:58:19.584Z,6.80
2017-11-07T21:00:47.064Z,6.70
2017-11-07T21:03:14.564Z,6.80
2017-11-07T21:05:42.818Z,6.80
2017-11-07T21:08:11.081Z,6.70
2017-11-07T21:10:38.557Z,6.70
2017-11-07T21:13:06.050Z,6.70
2017-11-07T21:15:33.534Z,6.80
2017-11-07T21:18:01.031Z,6.80
2017-11-07T21:20:28.520Z,6.70
2017-11-07T21:22:56.042Z,6.70
2017-11-07T21:25:23.548Z,6.70
2017-11-07T21:27:51.063Z,6.80
2017-11-07T21:30:24.545Z,6.80
2017-11-07T21:32:52.710Z,6.80
2017-11-07T21:35:23.201Z,6.70
2017-11-07T21:37:51.465Z,6.70
2017-11-07T21:40:19.722Z,6.80
2017-11-07T21:42:47.982Z,6.70
2017-11-07T21:45:15.492Z,6.70
2017-11-07T21:47:42.972Z,6.70
2017-11-07T21:50:11.310Z,6.70
2017-11-07T21:52:39.544Z,6.70
2017-11-07T21:55:07.031Z,6.70
2017-11-07T21:57:36.300Z,6.70
2017-11-07T22:00:03.797Z,6.70
2017-11-07T22:02:32.036Z,6.70
2017-11-07T22:04:59.550Z,6.70
2017-11-07T22:07:27.036Z,6.60
2017-11-07T22:09:57.060Z,6.70
2017-11-07T22:12:24.537Z,6.70
2017-11-07T22:14:52.021Z,6.70
2017-11-07T22:17:20.280Z,6.70
2017-11-07T22:19:50.201Z,6.60
2017-11-07T22:22:17.773Z,6.60
2017-11-07T22:24:46.021Z,6.70
2017-11-07T22:27:13.546Z,6.70
2017-11-07T22:29:41.051Z,6.70
2017-11-07T22:32:08.605Z,6.70
2017-11-07T22:34:36.844Z,6.60
2017-11-07T22:37:04.345Z,6.60
2017-11-07T22:39:31.819Z,6.60
2017-11-07T22:42:00.096Z,6.60
2017-11-07T22:44:28.352Z,6.50
2017-11-07T22:46:55.842Z,6.50
2017-11-07T22:49:23.325Z,6.50
2017-11-07T22:51:50.814Z,6.50
2017-11-07T22:54:18.312Z,6.60
2017-11-07T22:56:46.568Z,6.60
2017-11-07T22:59:14.836Z,6.50
2017-11-07T23:01:42.327Z,6.50
2017-11-07T23:04:09.816Z,6.50
2017-11-07T23:06:37.304Z,6.60
2017-11-07T23:09:04.813Z,6.60
2017-11-07T23:11:32.296Z,6.60
2017-11-07T23:13:59.787Z,6.60
2017-11-07T23:16:27.284Z,6.70
2017-11-07T23:18:54.781Z,6.70
2017-11-07T23:21:22.266Z,6.60
2017-11-07T23:23:49.756Z,6.60
2017-11-07T23:26:17.241Z,6.60
2017-11-07T23:28:44.735Z,6.70
2017-11-07T23:31:12.978Z,6.70
2017-11-07T23:33:40.459Z,6.70
2017-11-07T23:36:07.942Z,6.70
2017-11-07T23:38:36.221Z,6.70
2017-11-07T23:41:04.463Z,6.70
2017-11-07T23:43:31.965Z,6.70
2017-11-07T23:45:59.444Z,6.80
2017-11-07T23:48:26.941Z,6.80
2017-11-07T23:50:54.423Z,6.70
2017-11-07T23:53:22.719Z,6.70
2017-11-07T23:55:50.204Z,6.70
2017-11-07T23:58:17.711Z,6.70
